createdAt,value
2023-05-06T00:01:23.100Z,10.71
2023-05-06T00:03:51.637Z,11.74
2023-05-06T00:06:19.597Z,12.76
2023-05-06T00:08:47.481Z,12.34
2023-05-06T00:11:15.273Z,11.90
2023-05-06T00:13:43.208Z,11.65
2023-05-06T00:16:11.130Z,11.48
2023-05-06T00:18:39.031Z,11.35
2023-05-06T00:21:07.061Z,11.24
2023-05-06T00:23:34.949Z,11.15
2023-05-06T00:26:02.801Z,11.09
2023-05-06T00:28:30.713Z,11.04
2023-05-06T00:30:58.553Z,10.97
2023-05-06T00:33:26.894Z,10.95
2023-05-06T00:35:54.650Z,10.90
2023-05-06T00:38:22.613Z,10.86
2023-05-06T00:40:50.953Z,10.83
2023-05-06T00:43:18.924Z,10.80
2023-05-06T00:45:48.096Z,10.75
2023-05-06T00:48:16.470Z,10.72
2023-05-06T00:50:45.520Z,10.70
2023-05-06T00:53:13.280Z,10.67
2023-05-06T00:55:41.223Z,11.29
2023-05-06T00:58:09.131Z,12.43
2023-05-06T01:00:36.935Z,12.09
2023-05-06T01:03:04.805Z,11.67
2023-05-06T01:05:41.477Z,11.45
2023-05-06T01:08:20.210Z,11.25
2023-05-06T01:11:05.625Z,11.15
2023-05-06T01:13:47.703Z,11.05
2023-05-06T01:16:20.782Z,10.93
2023-05-06T01:18:49.560Z,10.86
2023-05-06T01:21:19.323Z,10.82
2023-05-06T01:23:55.302Z,10.77
2023-05-06T01:26:24.273Z,10.72
2023-05-06T01:28:52.489Z,10.79
2023-05-06T01:31:45.911Z,12.09
2023-05-06T01:34:35.996Z,13.07
2023-05-06T01:37:23.823Z,12.34
2023-05-06T01:39:54.631Z,11.82
2023-05-06T01:42:24.732Z,11.54
2023-05-06T01:44:55.271Z,11.30
2023-05-06T01:47:23.959Z,11.14
2023-05-06T01:49:52.187Z,11.03
2023-05-06T01:52:22.254Z,10.88
2023-05-06T01:54:50.095Z,10.85
2023-05-06T01:57:18.035Z,11.95
2023-05-06T01:59:45.808Z,12.64
2023-05-06T02:02:13.652Z,12.15
2023-05-06T02:04:41.776Z,11.74
2023-05-06T02:07:09.662Z,11.47
2023-05-06T02:09:37.439Z,11.26
2023-05-06T02:12:05.500Z,11.09
2023-05-06T02:14:33.437Z,11.00
2023-05-06T02:17:07.165Z,10.91
2023-05-06T02:19:35.161Z,10.95
2023-05-06T02:22:03.809Z,12.25
2023-05-06T02:24:31.680Z,12.33
2023-05-06T02:26:59.600Z,11.71
2023-05-06T02:29:27.353Z,11.35
2023-05-06T02:31:56.156Z,11.15
2023-05-06T02:34:24.112Z,10.97
2023-05-06T02:36:52.048Z,10.93
2023-05-06T02:39:19.891Z,12.11
2023-05-06T02:41:47.790Z,12.46
2023-05-06T02:44:15.634Z,11.94
2023-05-06T02:46:43.775Z,11.55
2023-05-06T02:49:11.579Z,11.31
2023-05-06T02:51:39.404Z,11.17
2023-05-06T02:54:07.245Z,11.05
2023-05-06T02:56:35.385Z,10.91
2023-05-06T02:59:04.144Z,11.06
2023-05-06T03:01:31.989Z,12.41
2023-05-06T03:03:59.954Z,12.31
2023-05-06T03:06:27.958Z,11.78
2023-05-06T03:08:55.873Z,11.44
2023-05-06T03:11:23.753Z,11.16
2023-05-06T03:13:51.787Z,11.15
2023-05-06T03:16:19.602Z,12.40
2023-05-06T03:18:47.505Z,12.52
2023-05-06T03:21:15.350Z,11.93
2023-05-06T03:23:43.264Z,11.55
2023-05-06T03:26:11.223Z,11.32
2023-05-06T03:28:39.116Z,11.12
2023-05-06T03:31:06.986Z,11.30
2023-05-06T03:33:34.865Z,12.67
2023-05-06T03:36:02.588Z,12.53
2023-05-06T03:38:30.406Z,11.93
2023-05-06T03:40:58.408Z,11.51
2023-05-06T03:43:26.478Z,11.26
2023-05-06T03:45:54.292Z,11.70
2023-05-06T03:48:22.197Z,13.06
2023-05-06T03:50:50.590Z,12.72
2023-05-06T03:53:18.464Z,12.10
2023-05-06T03:55:46.281Z,11.72
2023-05-06T03:58:14.181Z,11.47
2023-05-06T04:00:42.213Z,11.28
2023-05-06T04:03:10.177Z,11.68
2023-05-06T04:05:38.141Z,13.01
2023-05-06T04:08:06.165Z,12.64
2023-05-06T04:10:40.074Z,12.00
2023-05-06T04:13:08.024Z,11.56
2023-05-06T04:15:36.342Z,11.34
2023-05-06T04:18:07.675Z,11.24
2023-05-06T04:20:35.814Z,12.22
2023-05-06T04:23:04.383Z,13.84
2023-05-06T04:25:32.865Z,13.87
2023-05-06T04:28:01.074Z,12.97
2023-05-06T04:30:28.905Z,12.43
2023-05-06T04:32:56.918Z,12.02
2023-05-06T04:35:24.733Z,11.72
2023-05-06T04:37:53.380Z,11.53
2023-05-06T04:40:21.495Z,12.54
2023-05-06T04:42:49.431Z,13.63
2023-05-06T04:45:18.029Z,13.04
2023-05-06T04:47:45.977Z,12.37
2023-05-06T04:50:14.145Z,11.94
2023-05-06T04:52:42.136Z,11.98
2023-05-06T04:55:11.512Z,13.45
2023-05-06T04:57:39.589Z,13.99
2023-05-06T05:00:10.398Z,13.19
2023-05-06T05:02:38.577Z,12.57
2023-05-06T05:05:07.282Z,12.10
2023-05-06T05:07:35.326Z,12.46
2023-05-06T05:10:03.356Z,13.93
2023-05-06T05:12:31.623Z,13.81
2023-05-06T05:14:59.430Z,13.03
2023-05-06T05:17:27.483Z,12.48
2023-05-06T05:19:55.328Z,12.11
2023-05-06T05:22:23.120Z,12.53
2023-05-06T05:24:51.119Z,14.05
2023-05-06T05:27:18.991Z,14.60
2023-05-06T05:29:46.780Z,13.75
2023-05-06T05:32:14.719Z,13.01
2023-05-06T05:34:42.639Z,12.52
2023-05-06T05:37:11.399Z,12.94
2023-05-06T05:39:39.360Z,14.39
2023-05-06T05:42:07.150Z,14.11
2023-05-06T05:44:35.016Z,13.33
2023-05-06T05:47:03.318Z,12.77
2023-05-06T05:49:31.336Z,12.68
2023-05-06T05:51:59.151Z,14.04
2023-05-06T05:54:26.984Z,15.05
2023-05-06T05:56:54.853Z,14.33
2023-05-06T05:59:22.639Z,13.54
2023-05-06T06:01:50.506Z,13.02
2023-05-06T06:04:18.565Z,13.65
2023-05-06T06:06:46.794Z,15.10
2023-05-06T06:09:14.692Z,15.62
2023-05-06T06:11:42.726Z,14.69
2023-05-06T06:14:11.350Z,13.86
2023-05-06T06:16:39.424Z,13.28
2023-05-06T06:19:07.262Z,13.27
2023-05-06T06:21:35.932Z,14.66
2023-05-06T06:24:04.387Z,15.54
2023-05-06T06:26:32.263Z,14.71
2023-05-06T06:29:00.594Z,13.84
2023-05-06T06:31:29.433Z,13.45
2023-05-06T06:33:57.358Z,14.55
2023-05-06T06:36:25.405Z,15.44
2023-05-06T06:38:53.256Z,14.65
2023-05-06T06:41:21.403Z,13.79
2023-05-06T06:43:49.338Z,13.40
2023-05-06T06:46:17.220Z,14.51
2023-05-06T06:48:45.101Z,15.61
2023-05-06T06:51:13.300Z,15.10
2023-05-06T06:53:41.406Z,14.11
2023-05-06T06:56:12.218Z,13.58
2023-05-06T06:58:40.124Z,14.58
2023-05-06T07:01:08.209Z,15.25
2023-05-06T07:03:36.019Z,14.44
2023-05-06T07:06:04.152Z,13.67
2023-05-06T07:08:33.967Z,14.33
2023-05-06T07:11:01.912Z,15.27
2023-05-06T07:13:29.751Z,14.84
2023-05-06T07:15:58.756Z,13.88
2023-05-06T07:18:26.750Z,13.55
2023-05-06T07:20:54.596Z,14.62
2023-05-06T07:23:22.479Z,15.58
2023-05-06T07:25:50.231Z,15.04
2023-05-06T07:28:18.121Z,14.04
2023-05-06T07:30:46.207Z,13.32
2023-05-06T07:33:14.071Z,13.94
2023-05-06T07:35:41.939Z,15.15
2023-05-06T07:38:09.892Z,15.13
2023-05-06T07:40:37.702Z,14.10
2023-05-06T07:43:05.505Z,13.34
2023-05-06T07:45:33.313Z,13.87
2023-05-06T07:48:01.149Z,15.13
2023-05-06T07:50:29.312Z,15.27
2023-05-06T07:52:57.580Z,14.23
2023-05-06T07:55:25.374Z,13.59
2023-05-06T07:57:53.419Z,14.47
2023-05-06T08:00:21.341Z,15.26
2023-05-06T08:02:49.179Z,14.48
2023-05-06T08:05:18.179Z,13.55
2023-05-06T08:07:46.152Z,13.78
2023-05-06T08:10:14.025Z,15.04
2023-05-06T08:12:42.082Z,15.24
2023-05-06T08:15:11.556Z,14.20
2023-05-06T08:17:39.885Z,13.44
2023-05-06T08:20:09.662Z,14.18
2023-05-06T08:22:37.594Z,15.26
2023-05-06T08:25:06.283Z,14.66
2023-05-06T08:27:34.061Z,13.60
2023-05-06T08:30:01.998Z,13.49
2023-05-06T08:32:30.293Z,14.62
2023-05-06T08:34:59.780Z,15.17
2023-05-06T08:37:27.656Z,14.23
2023-05-06T08:39:55.621Z,13.67
2023-05-06T08:42:28.363Z,14.74
2023-05-06T08:44:56.694Z,15.22
2023-05-06T08:47:24.603Z,14.16
2023-05-06T08:49:52.631Z,13.31
2023-05-06T08:52:21.448Z,14.02
2023-05-06T08:54:54.557Z,15.21
2023-05-06T08:57:22.499Z,14.99
2023-05-06T08:59:51.600Z,13.87
2023-05-06T09:02:19.576Z,13.66
2023-05-06T09:04:47.717Z,14.82
2023-05-06T09:07:15.581Z,15.20
2023-05-06T09:09:43.361Z,14.17
2023-05-06T09:12:15.021Z,13.63
2023-05-06T09:14:43.347Z,14.64
2023-05-06T09:17:26.663Z,15.09
2023-05-06T09:19:59.644Z,14.01
2023-05-06T09:22:29.578Z,13.63
2023-05-06T09:24:58.809Z,14.69
2023-05-06T09:27:33.811Z,15.03
2023-05-06T09:30:09.824Z,13.96
2023-05-06T09:32:40.001Z,14.00
2023-05-06T09:35:10.733Z,15.21
2023-05-06T09:37:39.637Z,15.60
2023-05-06T09:40:09.629Z,14.55
2023-05-06T09:42:38.001Z,13.76
2023-05-06T09:45:08.834Z,14.63
2023-05-06T09:47:36.892Z,15.57
2023-05-06T09:50:05.408Z,14.85
2023-05-06T09:52:33.768Z,13.87
2023-05-06T09:55:01.603Z,14.08
2023-05-06T09:57:39.661Z,15.27
2023-05-06T10:00:14.303Z,15.29
2023-05-06T10:02:43.900Z,14.23
2023-05-06T10:05:13.602Z,13.76
2023-05-06T10:07:42.477Z,14.86
2023-05-06T10:10:12.279Z,15.29
2023-05-06T10:12:40.316Z,14.22
2023-05-06T10:15:09.305Z,13.96
2023-05-06T10:17:39.898Z,14.94
2023-05-06T10:20:09.386Z,14.92
2023-05-06T10:22:40.330Z,13.88
2023-05-06T10:25:19.369Z,13.84
2023-05-06T10:27:50.451Z,15.00
2023-05-06T10:30:19.160Z,15.46
2023-05-06T10:32:47.193Z,14.51
2023-05-06T10:35:42.219Z,13.73
2023-05-06T10:38:39.307Z,14.64
2023-05-06T10:41:11.040Z,15.41
2023-05-06T10:43:44.294Z,14.41
2023-05-06T10:46:17.218Z,13.71
2023-05-06T10:49:04.410Z,14.63
2023-05-06T10:51:36.493Z,15.50
2023-05-06T10:54:07.870Z,14.64
2023-05-06T10:56:38.655Z,13.67
2023-05-06T10:59:12.107Z,14.13
2023-05-06T11:01:43.512Z,15.34
2023-05-06T11:04:16.019Z,15.43
2023-05-06T11:06:48.949Z,14.30
2023-05-06T11:09:21.919Z,13.51
2023-05-06T11:11:52.590Z,14.17
2023-05-06T11:14:37.867Z,15.39
2023-05-06T11:17:08.666Z,15.22
2023-05-06T11:19:38.682Z,14.05
2023-05-06T11:22:07.747Z,13.57
2023-05-06T11:24:41.748Z,14.69
2023-05-06T11:27:11.380Z,15.57
2023-05-06T11:29:39.282Z,14.70
2023-05-06T11:32:20.771Z,13.72
2023-05-06T11:34:48.871Z,14.15
2023-05-06T11:37:31.715Z,15.33
2023-05-06T11:40:00.194Z,15.38
2023-05-06T11:42:29.244Z,14.26
2023-05-06T11:45:10.022Z,13.64
2023-05-06T11:47:44.280Z,14.62
2023-05-06T11:50:12.382Z,15.61
2023-05-06T11:52:40.490Z,14.96
2023-05-06T11:55:10.105Z,13.89
2023-05-06T11:57:45.226Z,14.31
2023-05-06T12:00:14.589Z,15.56
2023-05-06T12:02:42.907Z,15.82
2023-05-06T12:05:10.944Z,14.67
2023-05-06T12:07:42.955Z,13.87
2023-05-06T12:10:11.291Z,14.73
2023-05-06T12:12:39.443Z,15.81
2023-05-06T12:15:08.560Z,15.72
2023-05-06T12:17:36.510Z,14.61
2023-05-06T12:20:05.413Z,14.02
2023-05-06T12:22:33.383Z,14.98
2023-05-06T12:25:14.167Z,15.74
2023-05-06T12:27:41.950Z,14.92
2023-05-06T12:30:11.501Z,13.91
2023-05-06T12:33:08.309Z,13.85
2023-05-06T12:35:36.262Z,15.33
2023-05-06T12:38:17.535Z,15.71
2023-05-06T12:40:53.690Z,14.52
2023-05-06T12:43:30.679Z,13.71
2023-05-06T12:46:09.028Z,14.56
2023-05-06T12:48:36.916Z,15.61
2023-05-06T12:51:21.864Z,15.48
2023-05-06T12:53:52.112Z,14.16
2023-05-06T12:56:25.439Z,13.79
2023-05-06T12:59:13.787Z,14.85
2023-05-06T13:01:42.129Z,15.52
2023-05-06T13:04:27.344Z,14.56
2023-05-06T13:07:24.067Z,13.66
2023-05-06T13:10:13.695Z,14.64
2023-05-06T13:12:48.650Z,15.61
2023-05-06T13:15:27.665Z,14.83
2023-05-06T13:17:57.481Z,13.76
2023-05-06T13:20:29.949Z,14.29
2023-05-06T13:23:00.061Z,15.33
2023-05-06T13:26:00.304Z,15.45
2023-05-06T13:28:33.564Z,14.05
2023-05-06T13:31:11.732Z,13.98
2023-05-06T13:34:11.441Z,15.06
2023-05-06T13:36:44.893Z,15.79
2023-05-06T13:39:18.767Z,14.60
2023-05-06T13:41:50.334Z,13.78
2023-05-06T13:47:16.090Z,15.70
2023-05-06T13:49:44.577Z,15.20
2023-05-06T13:52:15.982Z,14.07
2023-05-06T13:54:45.198Z,14.51
2023-05-06T13:57:13.637Z,15.51
2023-05-06T13:59:44.136Z,15.51
2023-05-06T14:02:20.036Z,14.30
2023-05-06T14:04:48.394Z,14.00
2023-05-06T14:07:17.150Z,14.99
2023-05-06T14:09:45.214Z,15.67
2023-05-06T14:12:13.473Z,15.13
2023-05-06T14:14:41.649Z,14.16
2023-05-06T14:17:29.799Z,14.81
2023-05-06T14:20:06.679Z,15.95
2023-05-06T14:22:37.680Z,15.46
2023-05-06T14:25:07.109Z,14.28
2023-05-06T14:27:44.635Z,14.59
2023-05-06T14:30:15.841Z,15.68
2023-05-06T14:32:45.007Z,15.97
2023-05-06T14:35:26.374Z,14.73
2023-05-06T14:37:54.850Z,14.18
2023-05-06T14:40:23.132Z,15.20
2023-05-06T14:42:51.995Z,15.94
2023-05-06T14:45:21.189Z,15.07
2023-05-06T14:47:49.180Z,14.20
2023-05-06T14:50:17.344Z,14.86
2023-05-06T14:52:45.781Z,15.89
2023-05-06T14:55:14.140Z,16.20
2023-05-06T14:57:42.083Z,15.06
2023-05-06T15:00:12.804Z,14.37
2023-05-06T15:02:41.209Z,15.35
2023-05-06T15:05:11.763Z,16.29
2023-05-06T15:07:40.077Z,15.70
2023-05-06T15:10:08.570Z,14.49
2023-05-06T15:12:38.106Z,14.53
2023-05-06T15:15:07.271Z,15.64
2023-05-06T15:17:35.436Z,16.10
2023-05-06T15:20:04.615Z,14.93
2023-05-06T15:22:32.532Z,14.37
2023-05-06T15:25:01.720Z,15.39
2023-05-06T15:27:30.873Z,15.81
2023-05-06T15:30:04.289Z,14.75
2023-05-06T15:32:34.224Z,14.33
2023-05-06T15:35:04.956Z,15.36
2023-05-06T15:37:34.472Z,16.29
2023-05-06T15:40:02.467Z,15.70
2023-05-06T15:42:30.496Z,14.48
2023-05-06T15:44:58.424Z,14.29
2023-05-06T15:47:26.793Z,15.48
2023-05-06T15:49:55.314Z,15.95
2023-05-06T15:52:24.951Z,14.85
2023-05-06T15:54:57.727Z,14.20
2023-05-06T15:57:30.405Z,15.08
2023-05-06T15:59:58.374Z,15.96
2023-05-06T16:02:27.482Z,15.40
2023-05-06T16:04:56.038Z,14.31
2023-05-06T16:07:24.389Z,14.49
2023-05-06T16:09:52.493Z,15.47
2023-05-06T16:12:20.539Z,16.01
2023-05-06T16:14:48.488Z,15.12
2023-05-06T16:17:16.584Z,14.15
2023-05-06T16:19:44.502Z,14.66
2023-05-06T16:22:12.619Z,15.59
2023-05-06T16:24:40.567Z,15.70
2023-05-06T16:27:08.455Z,14.66
2023-05-06T16:29:36.385Z,14.04
2023-05-06T16:32:04.611Z,14.82
2023-05-06T16:34:32.703Z,15.66
2023-05-06T16:37:00.737Z,15.81
2023-05-06T16:39:28.745Z,14.77
2023-05-06T16:41:56.688Z,13.94
2023-05-06T16:44:24.706Z,14.51
2023-05-06T16:46:52.989Z,15.47
2023-05-06T16:49:22.063Z,15.77
2023-05-06T16:51:49.985Z,14.73
2023-05-06T16:54:17.841Z,13.96
2023-05-06T16:56:52.022Z,14.64
2023-05-06T16:59:22.259Z,15.57
2023-05-06T17:01:50.844Z,15.76
2023-05-06T17:04:18.860Z,14.75
2023-05-06T17:06:48.919Z,14.09
2023-05-06T17:09:17.469Z,14.86
2023-05-06T17:11:45.456Z,15.74
2023-05-06T17:14:14.155Z,15.86
2023-05-06T17:16:45.510Z,14.83
2023-05-06T17:19:13.506Z,14.03
2023-05-06T17:21:41.680Z,14.63
2023-05-06T17:24:09.648Z,15.44
2023-05-06T17:26:38.723Z,15.62
2023-05-06T17:29:07.990Z,14.58
2023-05-06T17:31:36.316Z,13.84
2023-05-06T17:34:04.494Z,14.52
2023-05-06T17:36:33.755Z,15.37
2023-05-06T17:39:06.048Z,15.24
2023-05-06T17:41:34.087Z,14.19
2023-05-06T17:44:02.199Z,13.90
2023-05-06T17:46:31.567Z,14.83
2023-05-06T17:48:59.765Z,15.38
2023-05-06T17:51:27.717Z,14.72
2023-05-06T17:53:56.001Z,13.77
2023-05-06T17:56:24.035Z,14.09
2023-05-06T17:58:52.108Z,15.05
2023-05-06T18:01:20.393Z,15.30
2023-05-06T18:03:49.225Z,14.29
2023-05-06T18:06:17.889Z,13.77
2023-05-06T18:08:46.177Z,14.59
2023-05-06T18:11:14.813Z,15.40
2023-05-06T18:13:45.869Z,15.47
2023-05-06T18:16:13.874Z,14.40
2023-05-06T18:18:42.734Z,13.54
2023-05-06T18:21:10.577Z,13.91
2023-05-06T18:23:38.487Z,14.89
2023-05-06T18:26:06.465Z,15.47
2023-05-06T18:28:37.853Z,14.64
2023-05-06T18:31:07.167Z,13.74
2023-05-06T18:33:35.835Z,14.25
2023-05-06T18:36:04.036Z,15.27
2023-05-06T18:38:31.887Z,15.28
2023-05-06T18:41:00.129Z,14.20
2023-05-06T18:43:29.167Z,13.79
2023-05-06T18:45:57.108Z,14.64
2023-05-06T18:48:25.053Z,15.45
2023-05-06T18:50:54.330Z,15.41
2023-05-06T18:53:22.209Z,14.26
2023-05-06T18:55:51.011Z,13.80
2023-05-06T18:58:19.267Z,14.69
2023-05-06T19:00:47.481Z,15.42
2023-05-06T19:03:15.568Z,15.35
2023-05-06T19:05:43.450Z,14.29
2023-05-06T19:08:13.663Z,13.81
2023-05-06T19:10:41.737Z,14.64
2023-05-06T19:13:09.811Z,15.41
2023-05-06T19:15:37.811Z,15.12
2023-05-06T19:18:06.045Z,14.04
2023-05-06T19:20:35.388Z,13.65
2023-05-06T19:23:04.888Z,14.55
2023-05-06T19:25:36.466Z,15.32
2023-05-06T19:28:05.732Z,15.20
2023-05-06T19:30:35.752Z,14.15
2023-05-06T19:33:04.418Z,13.73
2023-05-06T19:35:38.923Z,14.67
2023-05-06T19:38:08.390Z,15.44
2023-05-06T19:40:36.509Z,14.77
2023-05-06T19:43:04.528Z,13.78
2023-05-06T19:45:33.873Z,14.21
2023-05-06T19:48:04.237Z,15.23
2023-05-06T19:50:35.528Z,15.42
2023-05-06T19:53:03.884Z,14.34
2023-05-06T19:55:32.131Z,13.64
2023-05-06T19:58:00.030Z,14.40
2023-05-06T20:00:28.349Z,15.38
2023-05-06T20:02:59.113Z,15.67
2023-05-06T20:05:32.002Z,14.55
2023-05-06T20:08:00.462Z,13.57
2023-05-06T20:10:29.001Z,13.74
2023-05-06T20:12:57.771Z,14.81
2023-05-06T20:15:26.754Z,15.47
2023-05-06T20:17:54.890Z,14.65
2023-05-06T20:20:23.058Z,13.61
2023-05-06T20:22:51.059Z,13.39
2023-05-06T20:25:19.343Z,14.50
2023-05-06T20:27:47.524Z,15.50
2023-05-06T20:30:15.701Z,15.65
2023-05-06T20:32:43.877Z,14.52
2023-05-06T20:35:12.457Z,13.54
2023-05-06T20:37:41.485Z,13.69
2023-05-06T20:40:10.548Z,14.82
2023-05-06T20:42:38.625Z,15.59
2023-05-06T20:45:07.406Z,14.83
2023-05-06T20:47:37.218Z,13.74
2023-05-06T20:50:05.687Z,13.58
2023-05-06T20:52:34.255Z,14.71
2023-05-06T20:55:03.299Z,15.55
2023-05-06T20:57:31.099Z,15.00
2023-05-06T20:59:59.804Z,13.92
2023-05-06T21:02:30.119Z,13.54
2023-05-06T21:04:59.368Z,14.59
2023-05-06T21:07:27.499Z,15.49
2023-05-06T21:09:55.346Z,14.90
2023-05-06T21:12:23.219Z,13.82
2023-05-06T21:14:51.171Z,13.52
2023-05-06T21:17:19.151Z,14.59
2023-05-06T21:19:48.694Z,15.60
2023-05-06T21:22:16.716Z,15.70
2023-05-06T21:24:44.672Z,14.50
2023-05-06T21:27:12.525Z,13.52
2023-05-06T21:29:40.421Z,13.67
2023-05-06T21:32:08.598Z,14.81
2023-05-06T21:34:36.474Z,15.70
2023-05-06T21:37:04.367Z,15.39
2023-05-06T21:39:32.361Z,14.22
2023-05-06T21:42:00.564Z,13.42
2023-05-06T21:44:28.345Z,14.02
2023-05-06T21:46:56.757Z,15.10
2023-05-06T21:49:24.717Z,15.20
2023-05-06T21:51:52.539Z,14.14
2023-05-06T21:54:21.144Z,13.34
2023-05-06T21:56:48.972Z,13.96
2023-05-06T21:59:16.931Z,15.04
2023-05-06T22:01:44.827Z,15.34
2023-05-06T22:04:13.357Z,14.27
2023-05-06T22:06:41.449Z,13.33
2023-05-06T22:09:09.719Z,13.29
2023-05-06T22:11:38.655Z,14.46
2023-05-06T22:14:06.984Z,15.32
2023-05-06T22:16:35.820Z,14.78
2023-05-06T22:19:04.964Z,13.66
2023-05-06T22:21:37.459Z,13.31
2023-05-06T22:24:05.733Z,14.38
2023-05-06T22:26:33.865Z,15.35
2023-05-06T22:29:01.714Z,15.28
2023-05-06T22:31:29.808Z,14.14
2023-05-06T22:34:03.562Z,13.25
2023-05-06T22:36:34.453Z,13.48
2023-05-06T22:39:02.579Z,14.66
2023-05-06T22:41:31.190Z,15.34
2023-05-06T22:44:02.046Z,14.43
2023-05-06T22:46:30.019Z,13.41
2023-05-06T22:48:58.035Z,13.19
2023-05-06T22:51:25.978Z,14.29
2023-05-06T22:53:53.820Z,15.33
2023-05-06T22:56:21.872Z,15.44
2023-05-06T22:58:49.751Z,14.33
2023-05-06T23:01:18.007Z,13.35
2023-05-06T23:03:46.085Z,13.14
2023-05-06T23:06:13.987Z,14.28
2023-05-06T23:08:41.877Z,15.16
2023-05-06T23:11:10.056Z,14.77
2023-05-06T23:13:38.026Z,13.67
2023-05-06T23:16:07.799Z,12.93
2023-05-06T23:18:36.222Z,13.58
2023-05-06T23:21:04.221Z,14.74
2023-05-06T23:23:32.670Z,14.95
2023-05-06T23:26:00.591Z,13.88
2023-05-06T23:28:28.408Z,13.00
2023-05-06T23:30:56.439Z,13.41
2023-05-06T23:33:24.324Z,14.59
2023-05-06T23:35:52.344Z,14.87
2023-05-06T23:38:20.225Z,13.85
2023-05-06T23:40:49.535Z,12.96
2023-05-06T23:43:17.519Z,12.97
2023-05-06T23:45:45.481Z,14.20
2023-05-06T23:48:13.329Z,14.93
2023-05-06T23:50:41.183Z,14.13
2023-05-06T23:53:09.085Z,13.19
2023-05-06T23:55:37.360Z,12.87
2023-05-06T23:58:05.187Z,13.94
